Terminal Aerodrome Forecast
Issued by NWS South Bend, IN

Home | Current Version | Previous Version | Text Only | Print | Product List | Glossary On
Versions: 1 2 3 4 5 6 7 8 9 10 11 12 13 14 15 16 17 18 19
000
FTUS43 KIWX 070500
TAFSBN
TAF
KSBN 070526Z 0706/0806 11007KT 6SM HZ SCT250
     FM070800 13004KT 4SM BR SCT250
     FM071500 18012KT P6SM SCT050
     FM080000 17007KT P6SM SCT100 BKN250=

USA.gov is the U.S. government's official web portal to all federal, state and local government web resources and services.